createdAt,value
2022-12-28T00:02:18.843Z,99678.91
2022-12-28T00:04:45.714Z,99679.72
2022-12-28T00:07:12.849Z,99682.31
2022-12-28T00:09:39.584Z,99681.47
2022-12-28T00:12:06.665Z,99675.31
2022-12-28T00:14:33.393Z,99678.06
2022-12-28T00:17:00.588Z,99677.91
2022-12-28T00:19:27.470Z,99677.09
2022-12-28T00:21:54.547Z,99676.19
2022-12-28T00:24:22.715Z,99682.44
2022-12-28T00:26:49.977Z,99668.34
2022-12-28T00:29:16.921Z,99678.19
2022-12-28T00:31:45.954Z,99666.53
2022-12-28T00:34:13.161Z,99665.78
2022-12-28T00:37:10.747Z,99660.44
2022-12-28T00:39:27.018Z,99660.50
2022-12-28T00:41:54.075Z,99675.69
2022-12-28T00:44:20.844Z,99673.97
2022-12-28T00:46:47.957Z,99675.03
2022-12-28T00:49:14.724Z,99667.94
2022-12-28T00:51:41.812Z,99670.63
2022-12-28T00:54:08.634Z,99671.63
2022-12-28T00:56:35.759Z,99674.44
2022-12-28T00:59:02.563Z,99686.00
2022-12-28T01:01:29.862Z,99674.44
2022-12-28T01:03:57.313Z,99675.34
2022-12-28T01:06:25.558Z,99677.31
2022-12-28T01:08:52.526Z,99677.31
2022-12-28T01:11:24.370Z,99689.03
2022-12-28T01:13:51.669Z,99676.56
2022-12-28T01:16:29.643Z,99672.22
2022-12-28T01:18:58.076Z,99675.03
2022-12-28T01:21:26.740Z,99681.19
2022-12-28T01:23:55.097Z,99682.22
2022-12-28T01:26:22.302Z,99673.28
2022-12-28T01:28:49.044Z,99672.66
2022-12-28T01:31:17.161Z,99666.47
2022-12-28T01:33:44.074Z,99655.81
2022-12-28T01:36:15.979Z,99665.66
2022-12-28T01:38:43.339Z,99673.81
2022-12-28T01:41:13.539Z,99670.25
2022-12-28T01:43:41.341Z,99676.44
2022-12-28T01:46:10.293Z,99659.56
2022-12-28T01:48:37.117Z,99651.75
2022-12-28T01:51:04.260Z,99653.59
2022-12-28T01:53:31.032Z,99648.31
2022-12-28T01:55:58.134Z,99651.25
2022-12-28T01:58:26.051Z,99651.13
2022-12-28T02:00:53.134Z,99648.53
2022-12-28T02:03:25.198Z,99644.22
2022-12-28T02:05:53.484Z,99644.09
2022-12-28T02:08:31.156Z,99640.63
2022-12-28T02:10:58.240Z,99627.31
2022-12-28T02:13:25.056Z,99616.75
2022-12-28T02:15:52.072Z,99611.34
2022-12-28T02:18:19.426Z,99606.13
2022-12-28T02:20:52.755Z,99597.31
2022-12-28T02:23:51.159Z,99594.69
2022-12-28T02:26:43.132Z,99582.34
2022-12-28T02:29:15.580Z,99593.09
2022-12-28T02:31:44.896Z,99591.34
2022-12-28T02:34:20.110Z,99601.16
2022-12-28T02:36:51.135Z,99589.75
2022-12-28T02:39:20.758Z,99589.81
2022-12-28T02:41:47.801Z,99584.47
2022-12-28T02:44:34.500Z,99589.13
2022-12-28T02:47:20.068Z,99583.78
2022-12-28T02:50:05.478Z,99580.28
2022-12-28T02:52:46.674Z,99580.28
2022-12-28T02:55:50.402Z,99584.84
2022-12-28T02:58:28.346Z,99585.91
2022-12-28T03:01:20.314Z,99592.22
2022-12-28T03:03:59.283Z,99584.22
2022-12-28T03:06:53.893Z,99585.22
2022-12-28T03:09:31.492Z,99580.88
2022-12-28T03:12:02.842Z,99579.06
2022-12-28T03:14:38.533Z,99575.59
2022-12-28T03:17:23.910Z,99575.66
2022-12-28T03:20:13.220Z,99582.81
2022-12-28T03:22:58.457Z,99569.50
2022-12-28T03:25:45.293Z,99565.06
2022-12-28T03:28:32.684Z,99565.28
2022-12-28T03:31:05.577Z,99563.53
2022-12-28T03:33:37.590Z,99548.44
2022-12-28T03:36:07.532Z,99552.97
2022-12-28T03:39:07.309Z,99538.03
2022-12-28T03:42:15.409Z,99543.16
2022-12-28T03:44:43.197Z,99537.06
2022-12-28T03:47:11.698Z,99530.06
2022-12-28T03:49:38.482Z,99533.59
2022-12-28T03:52:05.549Z,99530.06
2022-12-28T03:54:32.308Z,99529.19
2022-12-28T03:56:59.427Z,99519.44
2022-12-28T03:59:26.177Z,99513.38
2022-12-28T04:01:53.318Z,99520.50
2022-12-28T04:04:20.185Z,99511.56
2022-12-28T04:06:47.215Z,99511.63
2022-12-28T04:09:14.023Z,99514.28
2022-12-28T04:11:41.082Z,99507.19
2022-12-28T04:14:10.997Z,99510.75
2022-12-28T04:16:38.394Z,99508.22
2022-12-28T04:19:05.205Z,99510.88
2022-12-28T04:21:32.287Z,99511.75
2022-12-28T04:23:59.020Z,99502.00
2022-12-28T04:26:26.117Z,99504.69
2022-12-28T04:28:53.009Z,99502.00
2022-12-28T04:31:20.165Z,99492.13
2022-12-28T04:33:46.929Z,99490.50
2022-12-28T04:36:15.222Z,99492.19
2022-12-28T04:38:42.157Z,99476.34
2022-12-28T04:41:09.617Z,99474.63
2022-12-28T04:43:36.594Z,99470.16
2022-12-28T04:46:05.700Z,99468.41
2022-12-28T04:48:32.743Z,99465.72
2022-12-28T04:51:05.879Z,99468.41
2022-12-28T04:53:32.641Z,99470.38
2022-12-28T04:56:04.057Z,99473.00
2022-12-28T04:58:30.929Z,99464.13
2022-12-28T05:01:05.325Z,99458.78
2022-12-28T05:03:32.142Z,99458.00
2022-12-28T05:06:03.000Z,99466.81
2022-12-28T05:08:32.157Z,99460.59
2022-12-28T05:11:00.680Z,99452.78
2022-12-28T05:13:27.545Z,99448.47
2022-12-28T05:15:54.675Z,99444.88
2022-12-28T05:18:21.457Z,99450.53
2022-12-28T05:20:48.486Z,99445.94
2022-12-28T05:23:15.220Z,99446.69
2022-12-28T05:25:42.289Z,99445.94
2022-12-28T05:28:09.217Z,99437.78
2022-12-28T05:30:36.322Z,99447.06
2022-12-28T05:33:03.091Z,99436.31
2022-12-28T05:35:30.144Z,99447.06
2022-12-28T05:37:56.902Z,99443.47
2022-12-28T05:40:24.061Z,99445.06
2022-12-28T05:42:51.791Z,99434.38
2022-12-28T05:45:19.053Z,99438.00
2022-12-28T05:47:45.786Z,99437.19
2022-12-28T05:50:12.975Z,99427.34
2022-12-28T05:52:39.725Z,99425.66
2022-12-28T05:55:06.957Z,99424.09
2022-12-28T05:57:33.696Z,99424.91
2022-12-28T06:00:00.763Z,99432.84
2022-12-28T06:02:27.697Z,99424.09
2022-12-28T06:04:55.011Z,99424.16
2022-12-28T06:07:21.987Z,99433.03
2022-12-28T06:09:49.212Z,99422.34
2022-12-28T06:12:16.008Z,99423.16
2022-12-28T06:14:43.021Z,99418.72
2022-12-28T06:17:09.785Z,99415.34
2022-12-28T06:19:36.837Z,99407.31
2022-12-28T06:22:03.584Z,99407.31
2022-12-28T06:24:30.667Z,99407.41
2022-12-28T06:26:57.416Z,99407.31
2022-12-28T06:29:24.498Z,99408.41
2022-12-28T06:31:51.516Z,99410.16
2022-12-28T06:34:18.679Z,99410.88
2022-12-28T06:36:46.028Z,99406.53
2022-12-28T06:39:13.890Z,99414.47
2022-12-28T06:41:40.976Z,99407.41
2022-12-28T06:44:09.265Z,99402.00
2022-12-28T06:46:36.110Z,99387.72
2022-12-28T06:49:03.206Z,99390.47
2022-12-28T06:51:31.679Z,99386.88
2022-12-28T06:53:58.781Z,99402.00
2022-12-28T06:56:27.548Z,99396.66
2022-12-28T06:59:02.146Z,99397.66
2022-12-28T07:01:35.162Z,99397.66
2022-12-28T07:04:03.249Z,99403.06
2022-12-28T07:06:30.543Z,99395.97
2022-12-28T07:09:01.964Z,99398.47
2022-12-28T07:11:29.166Z,99389.59
2022-12-28T07:13:56.517Z,99389.66
2022-12-28T07:16:24.019Z,99382.44
2022-12-28T07:18:51.114Z,99386.13
2022-12-28T07:21:25.841Z,99385.13
2022-12-28T07:23:53.669Z,99382.44
2022-12-28T07:26:25.051Z,99381.78
2022-12-28T07:28:53.735Z,99381.72
2022-12-28T07:31:25.190Z,99380.78
2022-12-28T07:33:53.458Z,99384.19
2022-12-28T07:36:20.506Z,99378.84
2022-12-28T07:38:47.645Z,99377.91
2022-12-28T07:41:15.235Z,99376.13
2022-12-28T07:43:42.462Z,99372.72
2022-12-28T07:46:11.337Z,99376.19
2022-12-28T07:48:38.642Z,99371.84
2022-12-28T07:51:13.214Z,99372.72
2022-12-28T07:53:40.565Z,99367.38
2022-12-28T07:56:07.518Z,99364.63
2022-12-28T07:58:34.661Z,99360.97
2022-12-28T08:01:08.929Z,99371.78
2022-12-28T08:03:36.404Z,99368.19
2022-12-28T08:06:10.362Z,99364.63
2022-12-28T08:08:38.151Z,99364.72
2022-12-28T08:11:05.938Z,99378.59
2022-12-28T08:13:39.277Z,99366.25
2022-12-28T08:16:06.510Z,99364.38
2022-12-28T08:18:33.734Z,99362.56
2022-12-28T08:21:05.136Z,99357.16
2022-12-28T08:23:32.277Z,99368.59
2022-12-28T08:26:15.803Z,99364.97
2022-12-28T08:28:43.883Z,99361.53
2022-12-28T08:31:15.367Z,99355.09
2022-12-28T08:33:42.704Z,99358.78
2022-12-28T08:36:09.656Z,99368.31
2022-12-28T08:38:37.547Z,99368.19
2022-12-28T08:41:05.649Z,99371.72
2022-12-28T08:43:32.952Z,99370.69
2022-12-28T08:46:13.277Z,99374.16
2022-12-28T08:48:40.553Z,99368.81
2022-12-28T08:51:09.904Z,99359.88
2022-12-28T08:53:37.182Z,99371.34
2022-12-28T08:56:10.501Z,99378.34
2022-12-28T08:58:38.402Z,99378.34
2022-12-28T09:01:09.581Z,99378.16
2022-12-28T09:03:41.853Z,99380.56
2022-12-28T09:06:10.860Z,99373.59
2022-12-28T09:08:38.148Z,99366.34
2022-12-28T09:11:06.582Z,99374.44
2022-12-28T09:13:33.783Z,99366.41
2022-12-28T09:16:05.766Z,99361.59
2022-12-28T09:18:32.885Z,99351.06
2022-12-28T09:21:09.765Z,99350.75
2022-12-28T09:23:36.972Z,99347.22
2022-12-28T09:26:18.639Z,99351.72
2022-12-28T09:28:50.091Z,99354.25
2022-12-28T09:31:17.387Z,99357.59
2022-12-28T09:36:47.491Z,99353.03
2022-12-28T09:39:19.399Z,99353.91
2022-12-28T09:42:15.597Z,99339.69
2022-12-28T09:44:57.455Z,99343.16
2022-12-28T09:47:33.303Z,99338.59
2022-12-28T09:50:16.066Z,99335.91
2022-12-28T09:53:19.931Z,99322.44
2022-12-28T09:56:03.635Z,99327.50
2022-12-28T09:58:31.531Z,99327.50
2022-12-28T10:01:00.271Z,99314.88
2022-12-28T10:03:33.749Z,99305.91
2022-12-28T10:06:00.831Z,99302.28
2022-12-28T10:08:27.703Z,99302.94
2022-12-28T10:10:55.834Z,99301.09
2022-12-28T10:16:16.931Z,99291.75
2022-12-28T10:18:43.776Z,99286.41
2022-12-28T10:21:10.944Z,99274.84
2022-12-28T10:23:50.173Z,99274.56
2022-12-28T10:26:24.877Z,99267.41
2022-12-28T10:28:54.093Z,99260.13
2022-12-28T10:31:35.133Z,99250.06
2022-12-28T10:34:02.099Z,99256.06
2022-12-28T10:36:33.639Z,99248.03
2022-12-28T10:39:00.383Z,99241.50
2022-12-28T10:41:36.154Z,99238.63
2022-12-28T10:44:38.328Z,99233.91
2022-12-28T10:47:00.879Z,99235.53
2022-12-28T10:49:28.136Z,99228.19
2022-12-28T10:52:02.529Z,99245.72
2022-12-28T10:54:31.955Z,99235.59
2022-12-28T10:56:59.130Z,99235.59
2022-12-28T10:59:27.899Z,99232.75
2022-12-28T11:01:59.028Z,99229.94
2022-12-28T11:04:26.078Z,99229.94
2022-12-28T11:07:03.068Z,99242.22
2022-12-28T11:09:35.269Z,99230.38
2022-12-28T11:12:40.618Z,99224.03
2022-12-28T11:15:12.823Z,99225.59
2022-12-28T11:17:40.568Z,99214.81
2022-12-28T11:20:12.339Z,99213.72
2022-12-28T11:22:39.416Z,99211.66
2022-12-28T11:25:06.755Z,99214.13
2022-12-28T11:27:34.240Z,99207.88
2022-12-28T11:30:01.021Z,99210.56
2022-12-28T11:32:31.451Z,99208.50
2022-12-28T11:34:58.274Z,99201.19
2022-12-28T11:37:25.428Z,99204.72
2022-12-28T11:39:52.849Z,99201.19
2022-12-28T11:42:40.657Z,99200.00
2022-12-28T11:45:14.745Z,99192.13
2022-12-28T11:47:41.868Z,99201.63
2022-12-28T11:50:39.581Z,99193.78
2022-12-28T11:53:21.264Z,99183.06
2022-12-28T11:56:04.641Z,99170.47
2022-12-28T11:58:40.902Z,99171.84
2022-12-28T12:01:33.783Z,99166.41
2022-12-28T12:04:00.983Z,99160.28
2022-12-28T12:06:48.139Z,99154.84
2022-12-28T12:09:21.413Z,99153.03
2022-12-28T12:11:49.001Z,99152.88
2022-12-28T12:14:16.889Z,99141.53
2022-12-28T12:16:50.649Z,99139.56
2022-12-28T12:19:26.742Z,99133.16
2022-12-28T12:22:21.335Z,99139.56
2022-12-28T12:24:55.051Z,99133.88
2022-12-28T12:27:33.997Z,99120.97
2022-12-28T12:30:05.948Z,99121.06
2022-12-28T12:32:41.472Z,99119.97
2022-12-28T12:35:08.683Z,99110.34
2022-12-28T12:38:07.652Z,99112.94
2022-12-28T12:41:04.109Z,99110.44
2022-12-28T12:43:39.592Z,99098.78
2022-12-28T12:46:06.865Z,99100.59
2022-12-28T12:48:52.374Z,99082.63
2022-12-28T12:51:22.071Z,99066.66
2022-12-28T12:53:58.431Z,99064.66
2022-12-28T12:57:05.542Z,99073.31
2022-12-28T12:59:56.807Z,99076.75
2022-12-28T13:02:30.099Z,99073.31
2022-12-28T13:04:57.015Z,99073.22
2022-12-28T13:07:25.175Z,99074.88
2022-12-28T13:09:52.975Z,99071.31
2022-12-28T13:12:20.085Z,99060.59
2022-12-28T13:14:57.623Z,99057.91
2022-12-28T13:17:24.849Z,99047.03
2022-12-28T13:19:51.618Z,99039.94
2022-12-28T13:22:29.238Z,99028.13
2022-12-28T13:24:56.163Z,99020.09
2022-12-28T13:27:23.369Z,99028.22
2022-12-28T13:29:53.883Z,99018.72
2022-12-28T13:32:37.751Z,99017.66
2022-12-28T13:35:19.117Z,99024.00
2022-12-28T13:38:19.085Z,99038.50
2022-12-28T13:40:50.704Z,99038.91
2022-12-28T13:43:36.626Z,99036.16
2022-12-28T13:46:08.159Z,99042.16
2022-12-28T13:48:41.249Z,99039.66
2022-12-28T13:51:11.871Z,99048.88
2022-12-28T13:53:38.962Z,99043.53
2022-12-28T13:56:06.150Z,99044.75
2022-12-28T13:58:48.684Z,99045.22
2022-12-28T14:01:21.138Z,99042.91
2022-12-28T14:03:50.274Z,99033.22
2022-12-28T14:06:17.584Z,99027.25
2022-12-28T14:08:44.650Z,99021.91
2022-12-28T14:11:11.605Z,99019.31
2022-12-28T14:13:38.685Z,99021.03
2022-12-28T14:16:05.807Z,99012.25
2022-12-28T14:18:33.795Z,99008.75
2022-12-28T14:21:00.708Z,99014.13
2022-12-28T14:23:35.714Z,98992.59
2022-12-28T14:26:10.778Z,98984.59
2022-12-28T14:28:39.680Z,98986.66
2022-12-28T14:31:09.015Z,98979.31
2022-12-28T14:33:38.268Z,98980.38
2022-12-28T14:36:06.241Z,98986.75
2022-12-28T14:38:42.598Z,98978.78
2022-12-28T14:41:14.167Z,98988.47
2022-12-28T14:43:41.219Z,98979.22
2022-12-28T14:46:15.963Z,98989.25
2022-12-28T14:48:45.495Z,98983.91
2022-12-28T14:51:15.372Z,98987.44
2022-12-28T14:53:45.027Z,98987.63
2022-12-28T14:56:18.363Z,98976.03
2022-12-28T14:58:53.479Z,98975.25
2022-12-28T15:01:21.919Z,98969.13
2022-12-28T15:03:56.207Z,98971.91
2022-12-28T15:06:25.955Z,98980.78
2022-12-28T15:08:53.805Z,98969.13
2022-12-28T15:11:21.924Z,98972.66
2022-12-28T15:13:49.178Z,98975.59
2022-12-28T15:16:17.952Z,98975.50
2022-12-28T15:18:45.346Z,98973.88
2022-12-28T15:21:13.618Z,98979.41
2022-12-28T15:23:40.846Z,98971.28
2022-12-28T15:26:08.880Z,98970.44
2022-12-28T15:28:36.150Z,98969.56
2022-12-28T15:31:11.457Z,98972.47
2022-12-28T15:33:38.683Z,98976.03
2022-12-28T15:36:09.503Z,98977.06
2022-12-28T15:38:39.271Z,98969.13
2022-12-28T15:41:25.965Z,98969.19
2022-12-28T15:43:53.037Z,98964.72
2022-12-28T15:46:19.813Z,98964.72
2022-12-28T15:48:47.796Z,98967.66
2022-12-28T15:51:14.797Z,98961.38
2022-12-28T15:53:41.932Z,98958.69
2022-12-28T15:56:21.642Z,98955.22
2022-12-28T15:58:48.690Z,98941.84
2022-12-28T16:01:15.729Z,98948.16
2022-12-28T16:03:42.922Z,98943.97
2022-12-28T16:06:09.700Z,98950.13
2022-12-28T16:08:36.763Z,98960.94
2022-12-28T16:11:17.468Z,98957.88
2022-12-28T16:13:44.762Z,98956.25
2022-12-28T16:16:12.472Z,98950.22
2022-12-28T16:18:39.793Z,98945.91
2022-12-28T16:21:08.025Z,98953.22
2022-12-28T16:23:39.803Z,98947.03
2022-12-28T16:26:06.729Z,98949.69
2022-12-28T16:28:34.159Z,98945.44
2022-12-28T16:31:01.415Z,98941.06
2022-12-28T16:33:28.591Z,98955.47
2022-12-28T16:35:59.462Z,98943.91
2022-12-28T16:38:28.099Z,98949.34
2022-12-28T16:40:57.150Z,98944.00
2022-12-28T16:43:24.381Z,98945.00
2022-12-28T16:45:51.397Z,98939.25
2022-12-28T16:48:18.687Z,98937.88
2022-12-28T16:50:45.514Z,98939.94
2022-12-28T16:53:12.585Z,98937.00
2022-12-28T16:55:41.271Z,98930.09
2022-12-28T16:58:09.552Z,98943.75
2022-12-28T17:02:12.190Z,98924.31
2022-12-28T17:04:39.836Z,98939.44
2022-12-28T17:07:06.915Z,98923.81
2022-12-28T17:09:35.270Z,98934.78
2022-12-28T17:12:02.197Z,98928.28
2022-12-28T17:14:37.342Z,98939.34
2022-12-28T17:17:05.399Z,98939.34
2022-12-28T17:19:32.645Z,98934.94
2022-12-28T17:21:59.435Z,98930.53
2022-12-28T17:24:26.715Z,98931.31
2022-12-28T17:26:53.793Z,98928.88
2022-12-28T17:29:21.302Z,98939.97
2022-12-28T17:31:49.382Z,98939.00
2022-12-28T17:34:16.998Z,98947.03
2022-12-28T17:36:43.789Z,98946.25
2022-12-28T17:39:11.261Z,98943.31
2022-12-28T17:41:38.588Z,98943.75
2022-12-28T17:44:06.924Z,98945.72
2022-12-28T17:46:40.945Z,98945.66
2022-12-28T17:49:11.722Z,98943.97
2022-12-28T17:51:41.848Z,98947.38
2022-12-28T17:54:12.591Z,98953.66
2022-12-28T17:56:39.508Z,98950.06
2022-12-28T17:59:06.831Z,98939.59
2022-12-28T18:01:33.767Z,98943.22
2022-12-28T18:04:01.210Z,98942.28
2022-12-28T18:06:28.146Z,98940.63
2022-12-28T18:08:55.465Z,98944.78
2022-12-28T18:11:22.267Z,98938.22
2022-12-28T18:13:49.620Z,98943.97
2022-12-28T18:16:17.738Z,98950.38
2022-12-28T18:18:45.065Z,98950.72
2022-12-28T18:21:19.427Z,98959.72
2022-12-28T18:23:49.082Z,98968.69
2022-12-28T18:26:17.738Z,98957.28
2022-12-28T18:28:45.006Z,98966.25
2022-12-28T18:31:11.800Z,98967.97
2022-12-28T18:33:38.975Z,98965.22
2022-12-28T18:36:10.238Z,98961.59
2022-12-28T18:38:40.350Z,98963.50
2022-12-28T18:41:07.235Z,98946.59
2022-12-28T18:43:34.554Z,98961.75
2022-12-28T18:46:02.926Z,98957.38
2022-12-28T18:48:30.643Z,98959.19
2022-12-28T18:51:02.226Z,98965.47
2022-12-28T18:53:29.836Z,98962.72
2022-12-28T18:56:00.620Z,98968.84
2022-12-28T18:58:28.655Z,98967.28
2022-12-28T19:01:06.021Z,98972.56
2022-12-28T19:03:33.653Z,98965.63
2022-12-28T19:06:05.333Z,98961.13
2022-12-28T19:08:33.167Z,98959.34
2022-12-28T19:11:00.703Z,98951.47
2022-12-28T19:13:28.933Z,98946.91
2022-12-28T19:15:55.747Z,98948.72
2022-12-28T19:18:23.087Z,98941.41
2022-12-28T19:20:50.266Z,98938.63
2022-12-28T19:23:17.867Z,98942.09
2022-12-28T19:25:44.787Z,98936.81
2022-12-28T19:28:11.892Z,98929.75
2022-12-28T19:30:38.843Z,98935.97
2022-12-28T19:33:06.238Z,98935.09
2022-12-28T19:35:33.010Z,98942.41
2022-12-28T19:38:00.103Z,98939.75
2022-12-28T19:40:26.979Z,98935.09
2022-12-28T19:42:54.100Z,98935.19
2022-12-28T19:45:20.878Z,98930.94
2022-12-28T19:47:47.976Z,98925.34
2022-12-28T19:50:14.956Z,98923.69
2022-12-28T19:52:41.984Z,98919.13
2022-12-28T19:55:09.188Z,98913.72
2022-12-28T19:57:38.940Z,98909.47
2022-12-28T20:00:07.423Z,98907.72
2022-12-28T20:02:35.975Z,98903.25
2022-12-28T20:05:03.152Z,98901.50
2022-12-28T20:07:30.849Z,98900.81
2022-12-28T20:09:57.918Z,98903.50
2022-12-28T20:12:25.152Z,98899.00
2022-12-28T20:14:52.069Z,98899.09
2022-12-28T20:17:20.465Z,98904.19
2022-12-28T20:19:47.277Z,98898.75
2022-12-28T20:22:14.452Z,98895.16
2022-12-28T20:24:41.555Z,98895.22
2022-12-28T20:27:08.825Z,98901.44
2022-12-28T20:29:35.734Z,98899.69
2022-12-28T20:32:02.892Z,98893.50
2022-12-28T20:34:29.995Z,98890.72
2022-12-28T20:36:57.167Z,98889.88
2022-12-28T20:39:23.962Z,98883.56
2022-12-28T20:42:09.657Z,98887.22
2022-12-28T20:44:36.907Z,98882.88
2022-12-28T20:47:07.033Z,98871.31
2022-12-28T20:49:35.839Z,98872.19
2022-12-28T20:52:03.024Z,98871.41
2022-12-28T20:54:50.828Z,98863.22
2022-12-28T20:57:18.634Z,98861.81
2022-12-28T20:59:45.707Z,98860.22
2022-12-28T21:02:13.403Z,98866.75
2022-12-28T21:04:40.292Z,98871.16
2022-12-28T21:07:07.521Z,98872.00
2022-12-28T21:09:34.375Z,98866.50
2022-12-28T21:12:01.982Z,98858.47
2022-12-28T21:14:29.886Z,98859.50
2022-12-28T21:16:59.283Z,98857.00
2022-12-28T21:19:26.342Z,98847.50
2022-12-28T21:21:53.442Z,98848.19
2022-12-28T21:24:20.212Z,98841.91
2022-12-28T21:26:47.300Z,98845.78
2022-12-28T21:29:14.093Z,98845.44
2022-12-28T21:31:41.297Z,98854.06
2022-12-28T21:34:08.136Z,98846.13
2022-12-28T21:36:35.573Z,98843.88
2022-12-28T21:39:02.390Z,98840.78
2022-12-28T21:41:48.242Z,98847.88
2022-12-28T21:44:16.876Z,98842.59
2022-12-28T21:46:44.593Z,98834.75
2022-12-28T21:49:11.572Z,98838.28
2022-12-28T21:51:39.389Z,98832.22
2022-12-28T21:54:08.054Z,98829.47
2022-12-28T21:56:35.302Z,98831.19
2022-12-28T21:59:02.237Z,98826.81
2022-12-28T22:01:48.064Z,98825.84
2022-12-28T22:04:34.897Z,98825.75
2022-12-28T22:07:02.273Z,98824.03
2022-12-28T22:09:47.823Z,98821.53
2022-12-28T22:12:33.620Z,98810.06
2022-12-28T22:15:20.947Z,98802.91
2022-12-28T22:17:48.023Z,98806.44
2022-12-28T22:20:15.365Z,98803.75
2022-12-28T22:22:42.726Z,98811.09
2022-12-28T22:25:10.021Z,98818.75
2022-12-28T22:27:37.117Z,98812.47
2022-12-28T22:30:04.421Z,98816.25
2022-12-28T22:32:31.655Z,98817.22
2022-12-28T22:34:58.414Z,98815.16
2022-12-28T22:37:25.449Z,98811.72
2022-12-28T22:39:52.310Z,98805.38
2022-12-28T22:42:19.344Z,98805.75
2022-12-28T22:44:46.095Z,98805.84
2022-12-28T22:47:13.147Z,98805.66
2022-12-28T22:49:39.898Z,98813.78
2022-12-28T22:52:06.972Z,98818.06
2022-12-28T22:54:33.739Z,98805.56
2022-12-28T22:57:00.815Z,98797.28
2022-12-28T22:59:27.620Z,98801.78
2022-12-28T23:01:54.807Z,98801.94
2022-12-28T23:04:21.721Z,98806.34
2022-12-28T23:06:48.826Z,98803.69
2022-12-28T23:09:15.585Z,98797.28
2022-12-28T23:11:42.812Z,98796.59
2022-12-28T23:14:32.755Z,98798.50
2022-12-28T23:17:00.165Z,98788.13
2022-12-28T23:19:46.185Z,98778.06
2022-12-28T23:22:33.711Z,98780.72
2022-12-28T23:25:19.140Z,98787.81
2022-12-28T23:27:46.202Z,98780.63
2022-12-28T23:30:17.481Z,98782.47
2022-12-28T23:32:48.326Z,98796.94
2022-12-28T23:35:15.561Z,98801.50
2022-12-28T23:37:42.643Z,98811.34
2022-12-28T23:40:10.803Z,98809.69
2022-12-28T23:42:38.532Z,98800.91
2022-12-28T23:45:06.159Z,98796.41
2022-12-28T23:47:33.345Z,98786.75
2022-12-28T23:50:00.212Z,98777.91
2022-12-28T23:52:27.673Z,98790.38
2022-12-28T23:54:54.413Z,98784.19
2022-12-28T23:57:21.683Z,98782.72
2022-12-28T23:59:48.437Z,98778.22
